sensor_id;sensor_type;location;lat;lon;timestamp;pressure;altitude;pressure_sealevel;temperature;humidity
61345;BME280;47216;42.656;23.232;2023-08-06T00:01:16;92803.16;;;21.01;72.65
61345;BME280;47216;42.656;23.232;2023-08-06T00:03:48;92825.50;;;20.87;73.31
61345;BME280;47216;42.656;23.232;2023-08-06T00:06:14;92823.91;;;20.98;73.57
61345;BME280;47216;42.656;23.232;2023-08-06T00:08:41;92816.66;;;21.11;73.21
61345;BME280;47216;42.656;23.232;2023-08-06T00:11:08;92823.59;;;21.16;72.87
61345;BME280;47216;42.656;23.232;2023-08-06T00:13:34;92832.00;;;21.18;72.48
61345;BME280;47216;42.656;23.232;2023-08-06T00:16:19;92829.28;;;21.30;72.24
61345;BME280;47216;42.656;23.232;2023-08-06T00:18:45;92831.16;;;21.42;71.73
61345;BME280;47216;42.656;23.232;2023-08-06T00:21:14;92836.63;;;21.49;71.36
61345;BME280;47216;42.656;23.232;2023-08-06T00:23:41;92837.41;;;21.50;71.38
61345;BME280;47216;42.656;23.232;2023-08-06T00:26:08;92828.41;;;21.54;71.48
61345;BME280;47216;42.656;23.232;2023-08-06T00:28:34;92821.06;;;21.64;71.58
61345;BME280;47216;42.656;23.232;2023-08-06T00:31:01;92807.09;;;21.67;71.50
61345;BME280;47216;42.656;23.232;2023-08-06T00:33:28;92801.53;;;21.72;72.01
61345;BME280;47216;42.656;23.232;2023-08-06T00:35:55;92793.41;;;21.80;72.08
61345;BME280;47216;42.656;23.232;2023-08-06T00:38:23;92803.59;;;21.78;71.99
61345;BME280;47216;42.656;23.232;2023-08-06T00:40:49;92803.00;;;21.69;72.45
61345;BME280;47216;42.656;23.232;2023-08-06T00:43:16;92809.00;;;21.66;72.75
61345;BME280;47216;42.656;23.232;2023-08-06T00:45:43;92804.72;;;21.77;72.75
61345;BME280;47216;42.656;23.232;2023-08-06T00:48:09;92795.78;;;21.86;72.28
61345;BME280;47216;42.656;23.232;2023-08-06T00:50:36;92791.34;;;21.90;71.79
61345;BME280;47216;42.656;23.232;2023-08-06T00:53:03;92798.44;;;21.86;71.92
61345;BME280;47216;42.656;23.232;2023-08-06T00:55:32;92795.03;;;21.85;72.30
61345;BME280;47216;42.656;23.232;2023-08-06T00:57:59;92793.56;;;21.88;72.01
61345;BME280;47216;42.656;23.232;2023-08-06T01:00:27;92795.78;;;21.86;71.77
61345;BME280;47216;42.656;23.232;2023-08-06T01:02:53;92799.84;;;21.79;72.12
61345;BME280;47216;42.656;23.232;2023-08-06T01:05:21;92770.97;;;21.78;71.78
61345;BME280;47216;42.656;23.232;2023-08-06T01:07:59;92754.78;;;21.83;70.87
61345;BME280;47216;42.656;23.232;2023-08-06T01:10:53;92743.94;;;21.72;71.28
61345;BME280;47216;42.656;23.232;2023-08-06T01:16:06;92763.63;;;21.71;71.63
61345;BME280;47216;42.656;23.232;2023-08-06T01:18:33;92770.91;;;21.58;71.72
61345;BME280;47216;42.656;23.232;2023-08-06T01:21:04;92758.75;;;21.57;71.71
61345;BME280;47216;42.656;23.232;2023-08-06T01:23:31;92764.81;;;21.58;71.96
61345;BME280;47216;42.656;23.232;2023-08-06T01:26:09;92765.25;;;21.60;71.00
61345;BME280;47216;42.656;23.232;2023-08-06T01:28:40;92759.19;;;21.44;71.13
61345;BME280;47216;42.656;23.232;2023-08-06T01:31:15;92748.56;;;21.44;71.46
61345;BME280;47216;42.656;23.232;2023-08-06T01:33:45;92753.53;;;21.45;71.45
61345;BME280;47216;42.656;23.232;2023-08-06T01:36:15;92748.66;;;21.47;71.52
61345;BME280;47216;42.656;23.232;2023-08-06T01:38:43;92752.56;;;21.37;71.48
61345;BME280;47216;42.656;23.232;2023-08-06T01:41:10;92746.84;;;21.35;71.15
61345;BME280;47216;42.656;23.232;2023-08-06T01:43:37;92755.72;;;21.27;71.14
61345;BME280;47216;42.656;23.232;2023-08-06T01:46:03;92749.53;;;21.23;71.70
61345;BME280;47216;42.656;23.232;2023-08-06T01:48:30;92737.41;;;21.22;72.12
61345;BME280;47216;42.656;23.232;2023-08-06T01:50:57;92755.72;;;21.27;72.57
61345;BME280;47216;42.656;23.232;2023-08-06T01:53:25;92763.66;;;21.27;72.64
61345;BME280;47216;42.656;23.232;2023-08-06T01:55:52;92748.59;;;21.15;72.39
61345;BME280;47216;42.656;23.232;2023-08-06T01:58:18;92741.84;;;21.18;72.37
61345;BME280;47216;42.656;23.232;2023-08-06T02:00:45;92733.22;;;21.21;72.80
61345;BME280;47216;42.656;23.232;2023-08-06T02:03:12;92719.94;;;21.21;73.09
61345;BME280;47216;42.656;23.232;2023-08-06T02:05:39;92729.03;;;21.20;72.99
61345;BME280;47216;42.656;23.232;2023-08-06T02:08:06;92734.22;;;21.16;72.81
61345;BME280;47216;42.656;23.232;2023-08-06T02:10:34;92722.00;;;21.12;73.70
61345;BME280;47216;42.656;23.232;2023-08-06T02:13:01;92733.47;;;21.16;73.36
61345;BME280;47216;42.656;23.232;2023-08-06T02:15:27;92752.88;;;21.20;73.55
61345;BME280;47216;42.656;23.232;2023-08-06T02:17:54;92763.06;;;21.18;73.21
61345;BME280;47216;42.656;23.232;2023-08-06T02:20:21;92779.56;;;21.11;73.34
61345;BME280;47216;42.656;23.232;2023-08-06T02:22:48;92781.91;;;20.85;74.39
61345;BME280;47216;42.656;23.232;2023-08-06T02:25:15;92760.41;;;20.74;75.13
61345;BME280;47216;42.656;23.232;2023-08-06T02:27:43;92750.38;;;20.67;75.51
61345;BME280;47216;42.656;23.232;2023-08-06T02:30:10;92736.19;;;20.60;75.26
61345;BME280;47216;42.656;23.232;2023-08-06T02:32:36;92720.88;;;20.41;75.64
61345;BME280;47216;42.656;23.232;2023-08-06T02:35:03;92732.25;;;20.41;76.25
61345;BME280;47216;42.656;23.232;2023-08-06T02:37:33;92763.81;;;20.34;76.66
61345;BME280;47216;42.656;23.232;2023-08-06T02:39:59;92774.84;;;20.24;76.89
61345;BME280;47216;42.656;23.232;2023-08-06T02:42:26;92782.22;;;20.30;77.22
61345;BME280;47216;42.656;23.232;2023-08-06T02:44:54;92760.94;;;20.39;77.15
61345;BME280;47216;42.656;23.232;2023-08-06T02:47:21;92756.47;;;20.55;76.60
61345;BME280;47216;42.656;23.232;2023-08-06T02:49:48;92740.34;;;20.61;76.44
61345;BME280;47216;42.656;23.232;2023-08-06T02:52:14;92724.91;;;20.63;76.48
61345;BME280;47216;42.656;23.232;2023-08-06T02:54:41;92720.91;;;20.69;76.59
61345;BME280;47216;42.656;23.232;2023-08-06T02:57:08;92730.38;;;20.70;76.15
61345;BME280;47216;42.656;23.232;2023-08-06T02:59:35;92730.97;;;20.63;76.57
61345;BME280;47216;42.656;23.232;2023-08-06T03:02:04;92714.94;;;20.72;76.70
61345;BME280;47216;42.656;23.232;2023-08-06T03:04:31;92666.84;;;20.86;76.09
61345;BME280;47216;42.656;23.232;2023-08-06T03:06:57;92667.00;;;20.93;75.87
61345;BME280;47216;42.656;23.232;2023-08-06T03:09:24;92721.63;;;20.97;75.86
61345;BME280;47216;42.656;23.232;2023-08-06T03:11:51;92731.41;;;20.93;76.24
61345;BME280;47216;42.656;23.232;2023-08-06T03:14:18;92705.06;;;21.01;75.99
61345;BME280;47216;42.656;23.232;2023-08-06T03:16:44;92687.97;;;21.14;75.50
61345;BME280;47216;42.656;23.232;2023-08-06T03:19:12;92689.59;;;21.18;75.06
61345;BME280;47216;42.656;23.232;2023-08-06T03:21:39;92717.38;;;21.09;75.37
61345;BME280;47216;42.656;23.232;2023-08-06T03:24:06;92715.06;;;20.91;75.87
61345;BME280;47216;42.656;23.232;2023-08-06T03:26:33;92695.06;;;20.94;76.21
61345;BME280;47216;42.656;23.232;2023-08-06T03:28:59;92702.31;;;20.97;75.92
61345;BME280;47216;42.656;23.232;2023-08-06T03:31:26;92711.22;;;20.89;75.63
61345;BME280;47216;42.656;23.232;2023-08-06T03:33:53;92723.50;;;20.81;76.37
61345;BME280;47216;42.656;23.232;2023-08-06T03:36:21;92734.34;;;20.76;76.48
61345;BME280;47216;42.656;23.232;2023-08-06T03:38:48;92745.44;;;20.66;76.87
61345;BME280;47216;42.656;23.232;2023-08-06T03:41:14;92743.63;;;20.70;77.17
61345;BME280;47216;42.656;23.232;2023-08-06T03:43:41;92730.25;;;20.78;77.24
61345;BME280;47216;42.656;23.232;2023-08-06T03:46:08;92745.88;;;20.84;77.38
61345;BME280;47216;42.656;23.232;2023-08-06T03:48:35;92754.91;;;20.95;77.10
61345;BME280;47216;42.656;23.232;2023-08-06T03:51:01;92762.38;;;21.05;77.16
61345;BME280;47216;42.656;23.232;2023-08-06T03:53:30;92760.66;;;21.13;76.82
61345;BME280;47216;42.656;23.232;2023-08-06T03:55:56;92748.78;;;21.23;76.21
61345;BME280;47216;42.656;23.232;2023-08-06T03:58:25;92749.06;;;21.33;75.14
61345;BME280;47216;42.656;23.232;2023-08-06T04:00:58;92761.28;;;21.22;75.45
61345;BME280;47216;42.656;23.232;2023-08-06T04:03:25;92754.25;;;21.14;75.57
61345;BME280;47216;42.656;23.232;2023-08-06T04:05:51;92761.84;;;20.99;76.10
61345;BME280;47216;42.656;23.232;2023-08-06T04:08:18;92755.91;;;20.90;76.39
61345;BME280;47216;42.656;23.232;2023-08-06T04:10:49;92753.94;;;20.87;76.34
61345;BME280;47216;42.656;23.232;2023-08-06T04:13:15;92761.72;;;20.68;77.17
61345;BME280;47216;42.656;23.232;2023-08-06T04:15:42;92766.00;;;20.56;76.77
61345;BME280;47216;42.656;23.232;2023-08-06T04:18:09;92763.44;;;20.60;76.68
61345;BME280;47216;42.656;23.232;2023-08-06T04:20:42;92762.41;;;20.65;76.81
61345;BME280;47216;42.656;23.232;2023-08-06T04:23:10;92769.47;;;20.73;77.05
61345;BME280;47216;42.656;23.232;2023-08-06T04:25:37;92769.31;;;20.82;76.22
61345;BME280;47216;42.656;23.232;2023-08-06T04:28:05;92760.78;;;20.88;76.36
61345;BME280;47216;42.656;23.232;2023-08-06T04:30:31;92754.81;;;20.91;76.60
61345;BME280;47216;42.656;23.232;2023-08-06T04:32:58;92761.13;;;21.03;76.37
61345;BME280;47216;42.656;23.232;2023-08-06T04:35:25;92759.34;;;21.07;76.18
61345;BME280;47216;42.656;23.232;2023-08-06T04:37:52;92759.78;;;21.09;75.92
61345;BME280;47216;42.656;23.232;2023-08-06T04:40:18;92747.75;;;21.11;76.04
61345;BME280;47216;42.656;23.232;2023-08-06T04:42:45;92736.97;;;21.04;75.92
61345;BME280;47216;42.656;23.232;2023-08-06T04:45:13;92727.81;;;21.02;76.48
61345;BME280;47216;42.656;23.232;2023-08-06T04:47:40;92715.84;;;21.08;76.38
61345;BME280;47216;42.656;23.232;2023-08-06T04:50:08;92709.19;;;20.98;76.00
61345;BME280;47216;42.656;23.232;2023-08-06T04:52:34;92710.34;;;20.85;76.95
61345;BME280;47216;42.656;23.232;2023-08-06T04:55:01;92702.38;;;20.69;77.87
61345;BME280;47216;42.656;23.232;2023-08-06T04:57:31;92693.22;;;20.54;78.30
61345;BME280;47216;42.656;23.232;2023-08-06T04:59:57;92693.84;;;20.35;79.46
61345;BME280;47216;42.656;23.232;2023-08-06T05:02:25;92691.69;;;20.25;79.66
61345;BME280;47216;42.656;23.232;2023-08-06T05:04:52;92690.41;;;20.06;80.39
61345;BME280;47216;42.656;23.232;2023-08-06T05:07:19;92700.16;;;19.90;80.44
61345;BME280;47216;42.656;23.232;2023-08-06T05:09:46;92695.97;;;19.89;81.13
61345;BME280;47216;42.656;23.232;2023-08-06T05:12:12;92702.44;;;20.04;81.15
61345;BME280;47216;42.656;23.232;2023-08-06T05:14:39;92709.38;;;20.08;81.23
61345;BME280;47216;42.656;23.232;2023-08-06T05:17:06;92709.28;;;20.05;81.93
61345;BME280;47216;42.656;23.232;2023-08-06T05:19:34;92704.84;;;20.09;82.05
61345;BME280;47216;42.656;23.232;2023-08-06T05:22:01;92707.38;;;20.18;82.28
61345;BME280;47216;42.656;23.232;2023-08-06T05:24:28;92709.09;;;20.26;82.43
61345;BME280;47216;42.656;23.232;2023-08-06T05:26:54;92713.75;;;20.29;81.29
61345;BME280;47216;42.656;23.232;2023-08-06T05:29:21;92702.94;;;20.22;81.20
61345;BME280;47216;42.656;23.232;2023-08-06T05:31:48;92703.72;;;20.22;80.16
61345;BME280;47216;42.656;23.232;2023-08-06T05:34:14;92694.78;;;20.27;80.54
61345;BME280;47216;42.656;23.232;2023-08-06T05:36:43;92702.53;;;20.20;81.01
61345;BME280;47216;42.656;23.232;2023-08-06T05:39:09;92693.72;;;20.15;80.78
61345;BME280;47216;42.656;23.232;2023-08-06T05:41:36;92694.34;;;20.12;80.17
61345;BME280;47216;42.656;23.232;2023-08-06T05:44:03;92692.56;;;20.29;80.42
61345;BME280;47216;42.656;23.232;2023-08-06T05:46:30;92699.78;;;20.44;81.07
61345;BME280;47216;42.656;23.232;2023-08-06T05:48:56;92703.81;;;20.54;80.84
61345;BME280;47216;42.656;23.232;2023-08-06T05:51:23;92703.81;;;20.54;80.03
61345;BME280;47216;42.656;23.232;2023-08-06T05:53:51;92703.28;;;20.61;80.76
61345;BME280;47216;42.656;23.232;2023-08-06T05:56:18;92713.91;;;20.48;79.82
61345;BME280;47216;42.656;23.232;2023-08-06T05:58:45;92712.38;;;20.35;80.07
61345;BME280;47216;42.656;23.232;2023-08-06T06:01:12;92718.56;;;20.39;80.79
61345;BME280;47216;42.656;23.232;2023-08-06T06:03:39;92722.53;;;20.45;80.27
61345;BME280;47216;42.656;23.232;2023-08-06T06:06:06;92721.25;;;20.55;80.46
61345;BME280;47216;42.656;23.232;2023-08-06T06:08:33;92718.84;;;20.62;80.70
61345;BME280;47216;42.656;23.232;2023-08-06T06:11:01;92724.66;;;20.68;79.57
61345;BME280;47216;42.656;23.232;2023-08-06T06:13:28;92726.63;;;20.71;77.82
61345;BME280;47216;42.656;23.232;2023-08-06T06:15:54;92739.56;;;20.88;78.72
61345;BME280;47216;42.656;23.232;2023-08-06T06:18:21;92736.25;;;20.91;76.27
61345;BME280;47216;42.656;23.232;2023-08-06T06:20:48;92743.28;;;20.99;76.58
61345;BME280;47216;42.656;23.232;2023-08-06T06:23:15;92751.34;;;21.03;75.84
61345;BME280;47216;42.656;23.232;2023-08-06T06:25:42;92753.41;;;21.10;75.53
61345;BME280;47216;42.656;23.232;2023-08-06T06:28:11;92752.28;;;21.11;76.35
61345;BME280;47216;42.656;23.232;2023-08-06T06:30:38;92753.16;;;21.15;75.89
61345;BME280;47216;42.656;23.232;2023-08-06T06:33:04;92754.84;;;21.23;74.71
61345;BME280;47216;42.656;23.232;2023-08-06T06:35:31;92766.91;;;21.20;74.88
61345;BME280;47216;42.656;23.232;2023-08-06T06:37:58;92774.53;;;21.22;75.58
61345;BME280;47216;42.656;23.232;2023-08-06T06:42:51;92779.47;;;21.08;75.82
61345;BME280;47216;42.656;23.232;2023-08-06T06:45:20;92786.03;;;20.98;75.17
61345;BME280;47216;42.656;23.232;2023-08-06T06:47:46;92782.56;;;21.10;75.63
61345;BME280;47216;42.656;23.232;2023-08-06T06:50:13;92786.44;;;21.28;73.88
61345;BME280;47216;42.656;23.232;2023-08-06T06:52:40;92783.41;;;21.42;73.09
61345;BME280;47216;42.656;23.232;2023-08-06T06:55:07;92787.25;;;21.45;72.30
61345;BME280;47216;42.656;23.232;2023-08-06T06:57:34;92794.09;;;21.46;71.90
61345;BME280;47216;42.656;23.232;2023-08-06T07:00:01;92794.44;;;21.60;72.03
61345;BME280;47216;42.656;23.232;2023-08-06T07:02:29;92800.16;;;21.62;70.44
61345;BME280;47216;42.656;23.232;2023-08-06T07:04:55;92807.25;;;21.58;69.24
61345;BME280;47216;42.656;23.232;2023-08-06T07:07:22;92823.63;;;21.60;69.56
61345;BME280;47216;42.656;23.232;2023-08-06T07:09:49;92820.31;;;21.63;68.02
61345;BME280;47216;42.656;23.232;2023-08-06T07:12:16;92820.91;;;21.72;69.85
61345;BME280;47216;42.656;23.232;2023-08-06T07:14:42;92823.72;;;21.79;68.48
61345;BME280;47216;42.656;23.232;2023-08-06T07:17:09;92822.53;;;21.93;69.01
61345;BME280;47216;42.656;23.232;2023-08-06T07:19:37;92821.13;;;21.99;67.83
61345;BME280;47216;42.656;23.232;2023-08-06T07:22:04;92831.75;;;21.99;66.89
61345;BME280;47216;42.656;23.232;2023-08-06T07:24:31;92826.00;;;22.13;68.50
61345;BME280;47216;42.656;23.232;2023-08-06T07:26:58;92833.91;;;22.09;66.51
61345;BME280;47216;42.656;23.232;2023-08-06T07:29:25;92822.84;;;22.07;64.76
61345;BME280;47216;42.656;23.232;2023-08-06T07:31:51;92828.25;;;22.27;66.98
61345;BME280;47216;42.656;23.232;2023-08-06T07:34:18;92830.28;;;22.17;64.86
61345;BME280;47216;42.656;23.232;2023-08-06T07:36:46;92831.84;;;22.18;65.83
61345;BME280;47216;42.656;23.232;2023-08-06T07:39:13;92828.84;;;22.04;65.66
61345;BME280;47216;42.656;23.232;2023-08-06T07:41:42;92824.38;;;22.08;66.77
61345;BME280;47216;42.656;23.232;2023-08-06T07:44:08;92833.56;;;22.27;65.87
61345;BME280;47216;42.656;23.232;2023-08-06T07:46:35;92830.13;;;22.26;62.77
61345;BME280;47216;42.656;23.232;2023-08-06T07:49:02;92826.44;;;22.31;63.04
61345;BME280;47216;42.656;23.232;2023-08-06T07:51:29;92823.94;;;22.38;65.63
61345;BME280;47216;42.656;23.232;2023-08-06T07:53:57;92821.19;;;22.34;63.90
61345;BME280;47216;42.656;23.232;2023-08-06T07:56:23;92821.38;;;22.41;64.95
61345;BME280;47216;42.656;23.232;2023-08-06T07:58:50;92820.22;;;22.58;62.27
61345;BME280;47216;42.656;23.232;2023-08-06T08:01:17;92815.03;;;22.65;61.42
61345;BME280;47216;42.656;23.232;2023-08-06T08:03:43;92815.94;;;22.73;60.15
61345;BME280;47216;42.656;23.232;2023-08-06T08:06:11;92819.13;;;22.79;60.96
61345;BME280;47216;42.656;23.232;2023-08-06T08:08:37;92811.41;;;22.93;60.40
61345;BME280;47216;42.656;23.232;2023-08-06T08:11:05;92814.94;;;22.97;61.29
61345;BME280;47216;42.656;23.232;2023-08-06T08:13:32;92805.53;;;22.84;60.92
61345;BME280;47216;42.656;23.232;2023-08-06T08:16:00;92807.50;;;22.68;61.38
61345;BME280;47216;42.656;23.232;2023-08-06T08:18:27;92818.41;;;22.82;62.20
61345;BME280;47216;42.656;23.232;2023-08-06T08:20:55;92806.94;;;22.78;62.47
61345;BME280;47216;42.656;23.232;2023-08-06T08:23:21;92817.31;;;22.83;62.24
61345;BME280;47216;42.656;23.232;2023-08-06T08:25:48;92818.13;;;22.87;61.13
61345;BME280;47216;42.656;23.232;2023-08-06T08:28:16;92819.41;;;22.93;59.90
61345;BME280;47216;42.656;23.232;2023-08-06T08:30:43;92814.38;;;23.07;60.79
61345;BME280;47216;42.656;23.232;2023-08-06T08:33:10;92811.38;;;23.09;60.09
61345;BME280;47216;42.656;23.232;2023-08-06T08:35:37;92811.63;;;23.23;60.05
61345;BME280;47216;42.656;23.232;2023-08-06T08:38:03;92801.50;;;23.10;58.48
61345;BME280;47216;42.656;23.232;2023-08-06T08:40:32;92805.44;;;23.16;59.90
61345;BME280;47216;42.656;23.232;2023-08-06T08:42:59;92818.47;;;23.24;59.56
61345;BME280;47216;42.656;23.232;2023-08-06T08:45:29;92808.44;;;23.14;58.88
61345;BME280;47216;42.656;23.232;2023-08-06T08:47:56;92809.75;;;23.24;59.78
61345;BME280;47216;42.656;23.232;2023-08-06T08:50:23;92795.09;;;23.34;58.01
61345;BME280;47216;42.656;23.232;2023-08-06T08:52:50;92800.47;;;23.37;58.29
61345;BME280;47216;42.656;23.232;2023-08-06T08:55:17;92795.34;;;23.48;57.38
61345;BME280;47216;42.656;23.232;2023-08-06T08:57:46;92786.13;;;23.65;58.05
61345;BME280;47216;42.656;23.232;2023-08-06T09:00:13;92791.81;;;23.63;57.68
61345;BME280;47216;42.656;23.232;2023-08-06T09:02:41;92784.56;;;23.83;57.77
61345;BME280;47216;42.656;23.232;2023-08-06T09:05:09;92782.72;;;23.87;56.31
61345;BME280;47216;42.656;23.232;2023-08-06T09:07:42;92794.66;;;23.97;55.78
61345;BME280;47216;42.656;23.232;2023-08-06T09:10:11;92783.47;;;23.88;55.39
61345;BME280;47216;42.656;23.232;2023-08-06T09:12:39;92782.81;;;23.72;55.53
61345;BME280;47216;42.656;23.232;2023-08-06T09:15:06;92793.94;;;23.77;55.86
61345;BME280;47216;42.656;23.232;2023-08-06T09:17:33;92783.38;;;23.81;55.49
61345;BME280;47216;42.656;23.232;2023-08-06T09:20:10;92776.91;;;23.82;56.25
61345;BME280;47216;42.656;23.232;2023-08-06T09:22:37;92782.34;;;23.89;55.70
61345;BME280;47216;42.656;23.232;2023-08-06T09:25:06;92778.63;;;23.94;55.24
61345;BME280;47216;42.656;23.232;2023-08-06T09:27:35;92780.47;;;24.16;54.51
61345;BME280;47216;42.656;23.232;2023-08-06T09:30:02;92780.63;;;24.00;54.18
61345;BME280;47216;42.656;23.232;2023-08-06T09:32:44;92777.03;;;23.89;55.54
61345;BME280;47216;42.656;23.232;2023-08-06T09:35:15;92767.50;;;23.88;55.12
61345;BME280;47216;42.656;23.232;2023-08-06T09:37:42;92770.34;;;23.99;55.97
61345;BME280;47216;42.656;23.232;2023-08-06T09:40:24;92768.41;;;24.26;54.93
61345;BME280;47216;42.656;23.232;2023-08-06T09:42:51;92756.50;;;24.43;53.90
61345;BME280;47216;42.656;23.232;2023-08-06T09:45:17;92758.22;;;24.58;53.99
61345;BME280;47216;42.656;23.232;2023-08-06T09:47:44;92762.03;;;24.57;53.87
61345;BME280;47216;42.656;23.232;2023-08-06T09:50:16;92761.63;;;24.55;53.69
61345;BME280;47216;42.656;23.232;2023-08-06T09:52:43;92758.22;;;24.58;52.64
61345;BME280;47216;42.656;23.232;2023-08-06T09:55:11;92767.38;;;24.61;51.12
61345;BME280;47216;42.656;23.232;2023-08-06T09:57:39;92757.72;;;24.49;51.05
61345;BME280;47216;42.656;23.232;2023-08-06T10:00:07;92766.91;;;24.25;50.81
61345;BME280;47216;42.656;23.232;2023-08-06T10:02:35;92775.81;;;24.09;51.80
61345;BME280;47216;42.656;23.232;2023-08-06T10:05:04;92776.38;;;23.96;53.64
61345;BME280;47216;42.656;23.232;2023-08-06T10:07:33;92774.44;;;23.93;54.09
61345;BME280;47216;42.656;23.232;2023-08-06T10:10:02;92775.59;;;23.95;54.09
61345;BME280;47216;42.656;23.232;2023-08-06T10:12:32;92771.63;;;24.08;53.53
61345;BME280;47216;42.656;23.232;2023-08-06T10:15:02;92777.59;;;24.28;53.58
61345;BME280;47216;42.656;23.232;2023-08-06T10:17:32;92777.00;;;24.39;52.90
61345;BME280;47216;42.656;23.232;2023-08-06T10:19:59;92771.97;;;24.33;51.84
61345;BME280;47216;42.656;23.232;2023-08-06T10:22:26;92775.31;;;24.27;51.21
61345;BME280;47216;42.656;23.232;2023-08-06T10:24:56;92779.44;;;24.51;50.83
61345;BME280;47216;42.656;23.232;2023-08-06T10:27:28;92788.78;;;24.64;52.10
61345;BME280;47216;42.656;23.232;2023-08-06T10:29:56;92789.09;;;24.59;50.01
61345;BME280;47216;42.656;23.232;2023-08-06T10:32:46;92792.38;;;24.49;50.88
61345;BME280;47216;42.656;23.232;2023-08-06T10:35:28;92799.72;;;24.32;51.03
61345;BME280;47216;42.656;23.232;2023-08-06T10:37:58;92794.31;;;24.25;51.40
61345;BME280;47216;42.656;23.232;2023-08-06T10:40:26;92793.28;;;24.33;51.46
61345;BME280;47216;42.656;23.232;2023-08-06T10:42:54;92798.47;;;24.23;50.74
61345;BME280;47216;42.656;23.232;2023-08-06T10:45:21;92805.16;;;24.13;51.29
61345;BME280;47216;42.656;23.232;2023-08-06T10:47:54;92805.47;;;24.08;52.20
61345;BME280;47216;42.656;23.232;2023-08-06T10:50:21;92807.06;;;24.13;52.53
61345;BME280;47216;42.656;23.232;2023-08-06T10:52:48;92806.19;;;24.31;53.13
61345;BME280;47216;42.656;23.232;2023-08-06T10:55:22;92803.34;;;24.17;52.42
61345;BME280;47216;42.656;23.232;2023-08-06T10:57:51;92812.03;;;24.14;52.89
61345;BME280;47216;42.656;23.232;2023-08-06T11:00:17;92807.22;;;24.23;52.87
61345;BME280;47216;42.656;23.232;2023-08-06T11:02:46;92812.53;;;24.23;52.89
61345;BME280;47216;42.656;23.232;2023-08-06T11:05:13;92819.72;;;24.19;53.54
61345;BME280;47216;42.656;23.232;2023-08-06T11:07:40;92820.94;;;24.25;54.17
61345;BME280;47216;42.656;23.232;2023-08-06T11:10:09;92822.75;;;24.18;53.94
61345;BME280;47216;42.656;23.232;2023-08-06T11:12:36;92832.34;;;23.99;53.64
61345;BME280;47216;42.656;23.232;2023-08-06T11:15:06;92835.56;;;23.85;55.52
61345;BME280;47216;42.656;23.232;2023-08-06T11:17:34;92835.72;;;23.73;57.72
61345;BME280;47216;42.656;23.232;2023-08-06T11:20:01;92838.94;;;23.63;60.41
61345;BME280;47216;42.656;23.232;2023-08-06T11:22:28;92832.78;;;23.59;62.62
61345;BME280;47216;42.656;23.232;2023-08-06T11:24:55;92840.34;;;23.57;63.94
61345;BME280;47216;42.656;23.232;2023-08-06T11:27:22;92834.91;;;23.49;64.21
61345;BME280;47216;42.656;23.232;2023-08-06T11:29:49;92831.59;;;23.56;64.88
61345;BME280;47216;42.656;23.232;2023-08-06T11:32:17;92830.66;;;23.68;65.05
61345;BME280;47216;42.656;23.232;2023-08-06T11:34:44;92824.78;;;23.78;64.53
61345;BME280;47216;42.656;23.232;2023-08-06T11:37:11;92821.94;;;23.90;66.70
61345;BME280;47216;42.656;23.232;2023-08-06T11:39:38;92822.13;;;24.01;66.52
61345;BME280;47216;42.656;23.232;2023-08-06T11:42:06;92818.81;;;24.08;66.46
61345;BME280;47216;42.656;23.232;2023-08-06T11:44:35;92815.34;;;24.07;66.03
61345;BME280;47216;42.656;23.232;2023-08-06T11:47:03;92814.47;;;24.00;59.53
61345;BME280;47216;42.656;23.232;2023-08-06T11:49:39;92803.09;;;24.03;55.40
61345;BME280;47216;42.656;23.232;2023-08-06T11:52:14;92805.69;;;24.22;52.76
61345;BME280;47216;42.656;23.232;2023-08-06T11:54:43;92794.47;;;24.36;52.16
61345;BME280;47216;42.656;23.232;2023-08-06T11:57:10;92797.91;;;24.63;55.46
61345;BME280;47216;42.656;23.232;2023-08-06T11:59:37;92804.22;;;24.82;55.58
61345;BME280;47216;42.656;23.232;2023-08-06T12:02:06;92795.81;;;24.80;52.34
61345;BME280;47216;42.656;23.232;2023-08-06T12:05:01;92796.31;;;24.89;52.45
61345;BME280;47216;42.656;23.232;2023-08-06T12:07:30;92800.50;;;24.90;55.36
61345;BME280;47216;42.656;23.232;2023-08-06T12:09:57;92792.91;;;24.92;54.88
61345;BME280;47216;42.656;23.232;2023-08-06T12:12:24;92793.31;;;24.94;55.84
61345;BME280;47216;42.656;23.232;2023-08-06T12:14:51;92803.31;;;25.01;59.50
61345;BME280;47216;42.656;23.232;2023-08-06T12:17:18;92796.81;;;24.98;59.61
61345;BME280;47216;42.656;23.232;2023-08-06T12:19:46;92799.56;;;25.05;61.87
61345;BME280;47216;42.656;23.232;2023-08-06T12:22:15;92796.47;;;25.03;58.03
61345;BME280;47216;42.656;23.232;2023-08-06T12:24:41;92798.00;;;25.04;59.47
61345;BME280;47216;42.656;23.232;2023-08-06T12:27:08;92796.88;;;25.05;55.87
61345;BME280;47216;42.656;23.232;2023-08-06T12:29:35;92806.81;;;25.08;60.15
61345;BME280;47216;42.656;23.232;2023-08-06T12:32:03;92804.56;;;25.10;61.79
61345;BME280;47216;42.656;23.232;2023-08-06T12:34:30;92804.63;;;25.17;63.49
61345;BME280;47216;42.656;23.232;2023-08-06T12:36:56;92811.03;;;25.09;59.19
61345;BME280;47216;42.656;23.232;2023-08-06T12:39:25;92809.53;;;25.12;57.62
61345;BME280;47216;42.656;23.232;2023-08-06T12:41:54;92796.31;;;25.19;60.79
61345;BME280;47216;42.656;23.232;2023-08-06T12:44:21;92788.31;;;25.23;59.92
61345;BME280;47216;42.656;23.232;2023-08-06T12:46:47;92795.22;;;25.24;60.39
61345;BME280;47216;42.656;23.232;2023-08-06T12:49:14;92795.63;;;25.26;62.44
61345;BME280;47216;42.656;23.232;2023-08-06T12:51:41;92797.19;;;25.30;62.67
61345;BME280;47216;42.656;23.232;2023-08-06T12:54:08;92793.97;;;25.17;55.37
61345;BME280;47216;42.656;23.232;2023-08-06T12:56:36;92792.19;;;25.29;59.16
61345;BME280;47216;42.656;23.232;2023-08-06T12:59:03;92791.81;;;25.27;58.77